createdAt,value
2022-11-29T00:00:41.735Z,7.30
2022-11-29T00:04:43.851Z,7.30
2022-11-29T00:08:45.924Z,7.40
2022-11-29T00:12:48.333Z,7.20
2022-11-29T00:16:59.187Z,7.20
2022-11-29T00:21:04.516Z,7.30
2022-11-29T00:25:06.468Z,7.30
2022-11-29T00:29:08.068Z,7.30
2022-11-29T00:33:09.606Z,7.30
2022-11-29T00:37:11.212Z,7.30
2022-11-29T00:41:12.844Z,7.30
2022-11-29T00:45:14.480Z,7.30
2022-11-29T00:49:16.188Z,7.30
2022-11-29T00:53:17.830Z,7.30
2022-11-29T00:57:19.384Z,7.40
2022-11-29T01:01:21.044Z,7.40
2022-11-29T01:05:22.765Z,7.40
2022-11-29T01:09:24.351Z,7.40
2022-11-29T01:13:25.935Z,7.40
2022-11-29T01:17:27.493Z,7.40
2022-11-29T01:21:29.432Z,7.40
2022-11-29T01:25:32.066Z,7.50
2022-11-29T01:29:33.713Z,7.50
2022-11-29T01:33:35.833Z,7.50
2022-11-29T01:37:37.429Z,7.50
2022-11-29T01:41:39.219Z,7.60
2022-11-29T01:45:40.860Z,7.60
2022-11-29T01:49:43.984Z,7.50
2022-11-29T01:53:45.929Z,7.60
2022-11-29T01:57:47.559Z,7.50
2022-11-29T02:01:49.197Z,7.40
2022-11-29T02:05:51.692Z,7.40
2022-11-29T02:09:53.268Z,7.40
2022-11-29T02:14:00.920Z,7.40
2022-11-29T02:18:32.021Z,7.30
2022-11-29T02:22:41.453Z,7.30
2022-11-29T02:26:43.028Z,7.40
2022-11-29T02:30:47.592Z,7.40
2022-11-29T02:34:49.155Z,7.40
2022-11-29T02:39:06.367Z,7.30
2022-11-29T02:43:14.041Z,7.40
2022-11-29T02:47:24.337Z,7.30
2022-11-29T02:51:31.092Z,7.10
2022-11-29T02:55:50.941Z,7.20
2022-11-29T02:59:52.482Z,7.30
2022-11-29T03:04:00.290Z,7.30
2022-11-29T03:08:04.902Z,7.30
2022-11-29T03:12:16.302Z,7.30
2022-11-29T03:16:26.975Z,7.30
2022-11-29T03:20:31.616Z,7.40
2022-11-29T03:24:47.036Z,7.50
2022-11-29T03:29:11.985Z,7.50
2022-11-29T03:33:22.974Z,7.50
2022-11-29T03:37:37.926Z,7.50
2022-11-29T03:41:39.655Z,7.60
2022-11-29T03:45:45.302Z,7.50
2022-11-29T03:49:59.573Z,7.60
2022-11-29T03:54:02.827Z,7.60
2022-11-29T03:58:23.398Z,7.70
2022-11-29T04:02:33.637Z,7.70
2022-11-29T04:06:46.065Z,7.80
2022-11-29T04:10:47.855Z,7.80
2022-11-29T04:14:58.002Z,7.70
2022-11-29T04:19:18.448Z,7.70
2022-11-29T04:23:26.226Z,7.70
2022-11-29T04:27:39.029Z,7.70
2022-11-29T04:31:46.795Z,7.60
2022-11-29T04:36:13.836Z,7.60
2022-11-29T04:40:34.238Z,7.60
2022-11-29T04:44:43.840Z,7.70
2022-11-29T04:48:45.601Z,7.70
2022-11-29T04:53:07.653Z,7.70
2022-11-29T04:57:17.600Z,7.70
2022-11-29T05:01:22.258Z,7.80
2022-11-29T05:05:24.610Z,7.70
2022-11-29T05:09:32.798Z,7.70
2022-11-29T05:13:42.755Z,7.70
2022-11-29T05:18:19.987Z,7.70
2022-11-29T05:22:39.523Z,7.60
2022-11-29T05:26:59.567Z,7.70
2022-11-29T05:31:24.783Z,7.70
2022-11-29T05:35:39.637Z,7.70
2022-11-29T05:39:44.311Z,7.70
2022-11-29T05:44:06.260Z,7.70
2022-11-29T05:48:10.851Z,7.60
2022-11-29T05:52:16.220Z,7.70
2022-11-29T05:56:24.228Z,7.60
2022-11-29T06:00:31.742Z,7.60
2022-11-29T06:04:41.272Z,7.60
2022-11-29T06:08:48.623Z,7.60
2022-11-29T06:13:08.988Z,7.70
2022-11-29T06:17:26.336Z,7.60
2022-11-29T06:21:45.911Z,7.50
2022-11-29T06:26:07.778Z,7.60
2022-11-29T06:30:20.879Z,7.60
2022-11-29T06:34:42.331Z,7.60
2022-11-29T06:38:44.091Z,7.60
2022-11-29T06:42:45.788Z,7.60
2022-11-29T06:46:48.963Z,7.70
2022-11-29T06:50:50.550Z,7.70
2022-11-29T06:55:01.266Z,7.70
2022-11-29T06:59:07.564Z,7.70
2022-11-29T07:03:18.758Z,7.70
2022-11-29T07:07:21.959Z,7.60
2022-11-29T07:11:24.324Z,7.60
2022-11-29T07:15:28.521Z,7.60
2022-11-29T07:19:38.313Z,7.70
2022-11-29T07:23:43.341Z,7.70
2022-11-29T07:28:06.942Z,7.80
2022-11-29T07:32:16.825Z,7.80
2022-11-29T07:36:19.621Z,7.90
2022-11-29T07:40:43.923Z,7.90
2022-11-29T07:44:52.392Z,8.00
2022-11-29T07:48:54.511Z,7.90
2022-11-29T07:52:56.646Z,7.80
2022-11-29T07:56:59.527Z,7.80
2022-11-29T08:01:01.293Z,7.80
2022-11-29T08:05:04.705Z,7.90
2022-11-29T08:09:08.315Z,7.70
2022-11-29T08:13:10.747Z,7.70
2022-11-29T08:17:12.405Z,7.60
2022-11-29T08:21:18.744Z,7.60
2022-11-29T08:25:20.392Z,7.60
2022-11-29T08:29:22.002Z,7.70
2022-11-29T08:33:23.566Z,7.60
2022-11-29T08:37:25.168Z,7.60
2022-11-29T08:41:26.819Z,7.60
2022-11-29T08:45:28.480Z,7.60
2022-11-29T08:49:30.081Z,7.70
2022-11-29T08:53:43.648Z,7.70
2022-11-29T08:57:47.545Z,7.70
2022-11-29T09:01:49.363Z,7.70
2022-11-29T09:05:51.423Z,7.70
2022-11-29T09:09:53.070Z,7.80
2022-11-29T09:13:57.551Z,7.70
2022-11-29T09:17:59.229Z,7.90
2022-11-29T09:22:01.949Z,7.80
2022-11-29T09:26:05.356Z,7.80
2022-11-29T09:30:08.209Z,8.00
2022-11-29T09:34:12.014Z,8.00
2022-11-29T09:38:14.184Z,8.00
2022-11-29T09:42:15.812Z,7.90
2022-11-29T09:46:21.542Z,8.00
2022-11-29T09:50:44.549Z,8.10
2022-11-29T09:54:46.449Z,8.00
2022-11-29T09:58:52.473Z,8.10
2022-11-29T10:02:57.063Z,8.10
2022-11-29T10:07:03.550Z,8.10
2022-11-29T10:11:18.024Z,8.10
2022-11-29T10:15:21.646Z,8.20
2022-11-29T10:19:31.989Z,8.20
2022-11-29T10:23:39.287Z,8.30
2022-11-29T10:27:41.490Z,8.20
2022-11-29T10:31:44.072Z,8.30
2022-11-29T10:35:46.039Z,8.30
2022-11-29T10:39:49.484Z,8.30
2022-11-29T10:43:51.974Z,8.60
2022-11-29T10:47:55.496Z,8.70
2022-11-29T10:51:57.147Z,8.70
2022-11-29T10:56:17.480Z,8.80
2022-11-29T11:00:19.259Z,8.90
2022-11-29T11:04:23.812Z,8.90
2022-11-29T11:08:26.393Z,8.80
2022-11-29T11:12:32.475Z,8.70
2022-11-29T11:16:37.360Z,8.70
2022-11-29T11:20:41.468Z,8.70
2022-11-29T11:24:44.458Z,8.70
2022-11-29T11:28:55.041Z,8.80
2022-11-29T11:33:06.812Z,8.80
2022-11-29T11:37:14.540Z,8.60
2022-11-29T11:41:21.976Z,8.60
2022-11-29T11:45:27.136Z,8.60
2022-11-29T11:49:36.165Z,8.70
2022-11-29T11:53:38.384Z,8.60
2022-11-29T11:57:40.113Z,8.60
2022-11-29T12:01:41.746Z,8.70
2022-11-29T12:05:46.205Z,8.70
2022-11-29T12:10:00.593Z,8.70
2022-11-29T12:14:05.886Z,8.70
2022-11-29T12:18:13.088Z,8.80
2022-11-29T12:22:18.258Z,8.60
2022-11-29T12:26:48.833Z,8.80
2022-11-29T12:30:56.305Z,8.90
2022-11-29T12:35:04.082Z,8.90
2022-11-29T12:39:05.635Z,8.90
2022-11-29T12:43:42.719Z,8.80
2022-11-29T12:47:53.946Z,8.80
2022-11-29T12:52:03.404Z,8.80
2022-11-29T12:56:05.001Z,8.90
2022-11-29T13:00:07.187Z,9.00
2022-11-29T13:04:21.169Z,9.10
2022-11-29T13:08:28.893Z,9.10
2022-11-29T13:12:39.715Z,9.10
2022-11-29T13:16:59.164Z,9.10
2022-11-29T13:21:09.863Z,9.00
2022-11-29T13:25:23.751Z,8.90
2022-11-29T13:29:26.041Z,8.90
2022-11-29T13:33:27.695Z,8.80
2022-11-29T13:37:29.303Z,8.90
2022-11-29T13:41:37.305Z,8.90
2022-11-29T13:45:46.374Z,8.80
2022-11-29T13:49:55.455Z,8.70
2022-11-29T13:53:59.492Z,8.80
2022-11-29T13:58:18.448Z,8.80
2022-11-29T14:02:28.481Z,8.70
2022-11-29T14:06:35.239Z,8.80
2022-11-29T14:10:37.494Z,8.70
2022-11-29T14:14:47.520Z,8.70
2022-11-29T14:19:03.560Z,8.70
2022-11-29T14:23:05.184Z,8.60
2022-11-29T14:27:09.142Z,8.70
2022-11-29T14:31:10.951Z,8.70
2022-11-29T14:35:16.244Z,8.70
2022-11-29T14:39:28.403Z,8.70
2022-11-29T14:43:34.164Z,8.50
2022-11-29T14:47:39.311Z,8.60
2022-11-29T14:52:08.486Z,8.50
2022-11-29T14:56:28.864Z,8.40
2022-11-29T15:00:45.254Z,8.40
2022-11-29T15:04:49.255Z,8.40
2022-11-29T15:08:59.877Z,8.40
2022-11-29T15:13:02.967Z,8.40
2022-11-29T15:17:11.254Z,8.40
2022-11-29T15:21:26.701Z,8.40
2022-11-29T15:25:31.292Z,8.40
2022-11-29T15:29:33.025Z,8.40
2022-11-29T15:33:41.241Z,8.40
2022-11-29T15:37:44.657Z,8.30
2022-11-29T15:41:48.808Z,8.30
2022-11-29T15:45:55.627Z,8.40
2022-11-29T15:50:00.485Z,8.30
2022-11-29T15:54:21.037Z,8.20
2022-11-29T15:58:23.593Z,8.30
2022-11-29T16:02:31.121Z,8.20
2022-11-29T16:06:45.255Z,8.20
2022-11-29T16:10:53.044Z,8.10
2022-11-29T16:14:56.556Z,8.10
2022-11-29T16:19:10.213Z,8.10
2022-11-29T16:23:13.256Z,8.10
2022-11-29T16:27:14.934Z,8.10
2022-11-29T16:31:23.853Z,8.00
2022-11-29T16:35:30.113Z,8.10
2022-11-29T16:39:33.164Z,8.10
2022-11-29T16:43:43.855Z,8.10
2022-11-29T16:47:47.043Z,8.10
2022-11-29T16:51:49.124Z,8.10
2022-11-29T16:55:50.849Z,8.20
2022-11-29T16:59:52.760Z,8.20
2022-11-29T17:03:56.145Z,8.20
2022-11-29T17:07:59.994Z,8.10
2022-11-29T17:12:02.806Z,8.10
2022-11-29T17:16:04.612Z,7.90
2022-11-29T17:20:07.325Z,8.00
2022-11-29T17:24:14.463Z,8.00
2022-11-29T17:28:16.170Z,8.00
2022-11-29T17:32:19.872Z,7.90
2022-11-29T17:36:24.927Z,7.90
2022-11-29T17:40:26.588Z,8.00
2022-11-29T17:44:28.145Z,7.90
2022-11-29T17:48:33.460Z,7.80
2022-11-29T17:52:35.355Z,7.80
2022-11-29T17:56:38.369Z,7.90
2022-11-29T18:00:42.122Z,7.90
2022-11-29T18:04:45.455Z,7.90
2022-11-29T18:08:48.253Z,7.90
2022-11-29T18:12:50.275Z,7.80
2022-11-29T18:16:52.126Z,7.70
2022-11-29T18:20:56.796Z,7.60
2022-11-29T18:25:16.139Z,7.40
2022-11-29T18:29:20.718Z,7.40
2022-11-29T18:33:22.816Z,7.40
2022-11-29T18:37:54.484Z,7.30
2022-11-29T18:41:47.941Z,7.30
2022-11-29T18:45:49.675Z,7.30
2022-11-29T18:49:51.343Z,7.30
2022-11-29T18:53:52.990Z,7.20
2022-11-29T18:57:55.093Z,7.20
2022-11-29T19:01:56.864Z,7.20
2022-11-29T19:05:58.587Z,7.10
2022-11-29T19:10:00.302Z,7.20
2022-11-29T19:14:03.922Z,7.20
2022-11-29T19:18:05.625Z,7.20
2022-11-29T19:22:07.402Z,7.20
2022-11-29T19:26:09.028Z,7.20
2022-11-29T19:30:11.142Z,7.10
2022-11-29T19:34:12.978Z,7.10
2022-11-29T19:38:14.724Z,7.10
2022-11-29T19:42:16.724Z,7.20
2022-11-29T19:46:19.864Z,7.10
2022-11-29T19:50:21.677Z,7.10
2022-11-29T19:54:23.342Z,7.00
2022-11-29T19:58:24.904Z,7.00
2022-11-29T20:02:26.592Z,7.00
2022-11-29T20:06:28.743Z,7.00
2022-11-29T20:10:30.364Z,7.10
2022-11-29T20:14:31.935Z,7.10
2022-11-29T20:18:33.848Z,7.10
2022-11-29T20:22:35.446Z,7.20
2022-11-29T20:26:38.283Z,7.10
2022-11-29T20:30:40.148Z,7.10
2022-11-29T20:34:41.928Z,7.10
2022-11-29T20:39:01.824Z,7.30
2022-11-29T20:43:11.621Z,7.30
2022-11-29T20:47:16.077Z,7.20
2022-11-29T20:51:17.878Z,7.10
2022-11-29T20:55:22.068Z,7.20
2022-11-29T20:59:26.663Z,7.10
2022-11-29T21:03:31.458Z,7.10
2022-11-29T21:07:33.477Z,7.10
2022-11-29T21:11:35.418Z,7.10
2022-11-29T21:15:37.267Z,7.20
2022-11-29T21:19:40.140Z,7.00
2022-11-29T21:23:45.311Z,7.10
2022-11-29T21:27:47.409Z,7.10
2022-11-29T21:31:50.673Z,7.20
2022-11-29T21:35:55.213Z,7.20
2022-11-29T21:39:57.635Z,7.20
2022-11-29T21:44:06.516Z,7.20
2022-11-29T21:48:28.928Z,7.20
2022-11-29T21:52:30.582Z,7.10
2022-11-29T21:56:32.237Z,7.20
2022-11-29T22:00:37.390Z,7.10
2022-11-29T22:04:39.446Z,7.20
2022-11-29T22:08:41.234Z,7.10
2022-11-29T22:12:49.461Z,7.10
2022-11-29T22:16:54.376Z,7.20
2022-11-29T22:20:56.187Z,7.10
2022-11-29T22:24:57.866Z,7.00
2022-11-29T22:28:59.451Z,6.90
2022-11-29T22:33:01.075Z,7.00
2022-11-29T22:37:02.664Z,6.90
2022-11-29T22:41:11.146Z,7.00
2022-11-29T22:45:12.755Z,7.00
2022-11-29T22:49:14.326Z,7.10
2022-11-29T22:53:16.447Z,7.20
2022-11-29T22:57:18.037Z,7.20
2022-11-29T23:01:24.119Z,7.30
2022-11-29T23:05:30.793Z,7.30
2022-11-29T23:09:33.811Z,7.20
2022-11-29T23:13:36.760Z,7.10
2022-11-29T23:17:38.405Z,7.10
2022-11-29T23:21:40.607Z,7.10
2022-11-29T23:25:49.550Z,7.10
2022-11-29T23:29:51.123Z,7.00
2022-11-29T23:33:52.898Z,7.10
2022-11-29T23:37:54.534Z,7.20
2022-11-29T23:41:56.138Z,7.00
2022-11-29T23:45:57.997Z,7.10
2022-11-29T23:49:59.711Z,7.10
2022-11-29T23:54:01.317Z,7.30
2022-11-29T23:58:03.258Z,7.20
